sensor_id;sensor_type;location;lat;lon;timestamp;temperature;humidity
9293;DHT22;69930;48.232;12.384;2024-01-07T00:00:53;3.60;99.90
9293;DHT22;69930;48.232;12.384;2024-01-07T00:03:21;3.60;99.90
9293;DHT22;69930;48.232;12.384;2024-01-07T00:05:48;3.60;99.90
9293;DHT22;69930;48.232;12.384;2024-01-07T00:08:15;3.60;99.90
9293;DHT22;69930;48.232;12.384;2024-01-07T00:10:42;3.60;99.90
9293;DHT22;69930;48.232;12.384;2024-01-07T00:13:09;3.50;99.90
9293;DHT22;69930;48.232;12.384;2024-01-07T00:15:38;3.50;99.90
9293;DHT22;69930;48.232;12.384;2024-01-07T00:18:05;3.60;99.90
9293;DHT22;69930;48.232;12.384;2024-01-07T00:20:32;3.60;99.90
9293;DHT22;69930;48.232;12.384;2024-01-07T00:22:59;3.60;99.90
9293;DHT22;69930;48.232;12.384;2024-01-07T00:25:26;3.60;99.90
9293;DHT22;69930;48.232;12.384;2024-01-07T00:27:54;3.50;99.90
9293;DHT22;69930;48.232;12.384;2024-01-07T00:30:21;3.60;99.90
9293;DHT22;69930;48.232;12.384;2024-01-07T00:32:50;3.50;99.90
9293;DHT22;69930;48.232;12.384;2024-01-07T00:35:17;3.50;99.90
9293;DHT22;69930;48.232;12.384;2024-01-07T00:37:45;3.50;99.90
9293;DHT22;69930;48.232;12.384;2024-01-07T00:40:12;3.50;99.90
9293;DHT22;69930;48.232;12.384;2024-01-07T00:42:39;3.50;99.90
9293;DHT22;69930;48.232;12.384;2024-01-07T00:45:07;3.50;99.90
9293;DHT22;69930;48.232;12.384;2024-01-07T00:47:35;3.60;99.90
9293;DHT22;69930;48.232;12.384;2024-01-07T00:50:04;3.50;99.90
9293;DHT22;69930;48.232;12.384;2024-01-07T00:52:32;3.50;99.90
9293;DHT22;69930;48.232;12.384;2024-01-07T00:54:59;3.50;99.90
9293;DHT22;69930;48.232;12.384;2024-01-07T00:57:29;3.50;99.90
9293;DHT22;69930;48.232;12.384;2024-01-07T00:59:56;3.60;99.90
9293;DHT22;69930;48.232;12.384;2024-01-07T01:02:23;3.60;99.90
9293;DHT22;69930;48.232;12.384;2024-01-07T01:04:50;3.60;99.90
9293;DHT22;69930;48.232;12.384;2024-01-07T01:07:19;3.60;99.90
9293;DHT22;69930;48.232;12.384;2024-01-07T01:09:46;3.60;99.90
9293;DHT22;69930;48.232;12.384;2024-01-07T01:12:13;3.60;99.90
9293;DHT22;69930;48.232;12.384;2024-01-07T01:14:40;3.60;99.90
9293;DHT22;69930;48.232;12.384;2024-01-07T01:17:08;3.60;99.90
9293;DHT22;69930;48.232;12.384;2024-01-07T01:19:35;3.60;99.90
9293;DHT22;69930;48.232;12.384;2024-01-07T01:22:02;3.50;99.90
9293;DHT22;69930;48.232;12.384;2024-01-07T01:24:31;3.60;99.90
9293;DHT22;69930;48.232;12.384;2024-01-07T01:26:59;3.60;99.90
9293;DHT22;69930;48.232;12.384;2024-01-07T01:29:26;3.60;99.90
9293;DHT22;69930;48.232;12.384;2024-01-07T01:31:53;3.60;99.90
9293;DHT22;69930;48.232;12.384;2024-01-07T01:34:20;3.50;99.90
9293;DHT22;69930;48.232;12.384;2024-01-07T01:36:47;3.50;99.90
9293;DHT22;69930;48.232;12.384;2024-01-07T01:39:15;3.50;99.90
9293;DHT22;69930;48.232;12.384;2024-01-07T01:41:43;3.40;99.90
9293;DHT22;69930;48.232;12.384;2024-01-07T01:44:11;3.50;99.90
9293;DHT22;69930;48.232;12.384;2024-01-07T01:46:38;3.50;99.90
9293;DHT22;69930;48.232;12.384;2024-01-07T01:49:05;3.50;99.90
9293;DHT22;69930;48.232;12.384;2024-01-07T01:51:33;3.50;99.90
9293;DHT22;69930;48.232;12.384;2024-01-07T01:54:02;3.50;99.90
9293;DHT22;69930;48.232;12.384;2024-01-07T01:56:30;3.50;99.90
9293;DHT22;69930;48.232;12.384;2024-01-07T01:58:59;3.50;99.90
9293;DHT22;69930;48.232;12.384;2024-01-07T02:01:26;3.60;99.90
9293;DHT22;69930;48.232;12.384;2024-01-07T02:03:53;3.50;99.90
9293;DHT22;69930;48.232;12.384;2024-01-07T02:06:21;3.50;99.90
9293;DHT22;69930;48.232;12.384;2024-01-07T02:08:49;3.60;99.90
9293;DHT22;69930;48.232;12.384;2024-01-07T02:11:18;3.50;99.90
9293;DHT22;69930;48.232;12.384;2024-01-07T02:13:46;3.50;99.90
9293;DHT22;69930;48.232;12.384;2024-01-07T02:16:15;3.50;99.90
9293;DHT22;69930;48.232;12.384;2024-01-07T02:18:44;3.50;99.90
9293;DHT22;69930;48.232;12.384;2024-01-07T02:21:13;3.50;99.90
9293;DHT22;69930;48.232;12.384;2024-01-07T02:23:41;3.60;99.90
9293;DHT22;69930;48.232;12.384;2024-01-07T02:26:09;3.50;99.90
9293;DHT22;69930;48.232;12.384;2024-01-07T02:28:36;3.50;99.90
9293;DHT22;69930;48.232;12.384;2024-01-07T02:31:04;3.50;99.90
9293;DHT22;69930;48.232;12.384;2024-01-07T02:33:31;3.50;99.90
9293;DHT22;69930;48.232;12.384;2024-01-07T02:35:58;3.40;99.90
9293;DHT22;69930;48.232;12.384;2024-01-07T02:38:25;3.40;99.90
9293;DHT22;69930;48.232;12.384;2024-01-07T02:40:52;3.40;99.90
9293;DHT22;69930;48.232;12.384;2024-01-07T02:43:21;3.40;99.90
9293;DHT22;69930;48.232;12.384;2024-01-07T02:45:48;3.40;99.90
9293;DHT22;69930;48.232;12.384;2024-01-07T02:48:15;3.40;99.90
9293;DHT22;69930;48.232;12.384;2024-01-07T02:50:42;3.40;99.90
9293;DHT22;69930;48.232;12.384;2024-01-07T02:53:09;3.50;99.90
9293;DHT22;69930;48.232;12.384;2024-01-07T02:55:38;3.40;99.90
9293;DHT22;69930;48.232;12.384;2024-01-07T02:58:05;3.40;99.90
9293;DHT22;69930;48.232;12.384;2024-01-07T03:00:34;3.40;99.90
9293;DHT22;69930;48.232;12.384;2024-01-07T03:03:01;3.40;99.90
9293;DHT22;69930;48.232;12.384;2024-01-07T03:05:28;3.40;99.90
9293;DHT22;69930;48.232;12.384;2024-01-07T03:07:58;3.40;99.90
9293;DHT22;69930;48.232;12.384;2024-01-07T03:10:26;3.40;99.90
9293;DHT22;69930;48.232;12.384;2024-01-07T03:12:53;3.40;99.90
9293;DHT22;69930;48.232;12.384;2024-01-07T03:15:20;3.40;99.90
9293;DHT22;69930;48.232;12.384;2024-01-07T03:17:49;3.40;99.90
9293;DHT22;69930;48.232;12.384;2024-01-07T03:20:16;3.50;99.90
9293;DHT22;69930;48.232;12.384;2024-01-07T03:22:43;3.50;99.90
9293;DHT22;69930;48.232;12.384;2024-01-07T03:25:10;3.50;99.90
9293;DHT22;69930;48.232;12.384;2024-01-07T03:27:37;3.50;99.90
9293;DHT22;69930;48.232;12.384;2024-01-07T03:30:05;3.50;99.90
9293;DHT22;69930;48.232;12.384;2024-01-07T03:32:34;3.50;99.90
9293;DHT22;69930;48.232;12.384;2024-01-07T03:35:02;3.50;99.90
9293;DHT22;69930;48.232;12.384;2024-01-07T03:37:29;3.50;99.90
9293;DHT22;69930;48.232;12.384;2024-01-07T03:39:56;3.50;99.90
9293;DHT22;69930;48.232;12.384;2024-01-07T03:42:23;3.50;99.90
9293;DHT22;69930;48.232;12.384;2024-01-07T03:44:51;3.50;99.90
9293;DHT22;69930;48.232;12.384;2024-01-07T03:47:18;3.50;99.90
9293;DHT22;69930;48.232;12.384;2024-01-07T03:49:45;3.50;99.90
9293;DHT22;69930;48.232;12.384;2024-01-07T03:52:13;3.50;99.90
9293;DHT22;69930;48.232;12.384;2024-01-07T03:54:40;3.50;99.90
9293;DHT22;69930;48.232;12.384;2024-01-07T03:57:08;3.40;99.90
9293;DHT22;69930;48.232;12.384;2024-01-07T03:59:35;3.50;99.90
9293;DHT22;69930;48.232;12.384;2024-01-07T04:02:02;3.50;99.90
9293;DHT22;69930;48.232;12.384;2024-01-07T04:04:29;3.50;99.90
9293;DHT22;69930;48.232;12.384;2024-01-07T04:06:56;3.50;99.90
9293;DHT22;69930;48.232;12.384;2024-01-07T04:09:25;3.50;99.90
9293;DHT22;69930;48.232;12.384;2024-01-07T04:11:52;3.50;99.90
9293;DHT22;69930;48.232;12.384;2024-01-07T04:14:19;3.50;99.90
9293;DHT22;69930;48.232;12.384;2024-01-07T04:16:46;3.50;99.90
9293;DHT22;69930;48.232;12.384;2024-01-07T04:19:13;3.40;99.90
9293;DHT22;69930;48.232;12.384;2024-01-07T04:21:45;3.40;99.90
9293;DHT22;69930;48.232;12.384;2024-01-07T04:24:13;3.40;99.90
9293;DHT22;69930;48.232;12.384;2024-01-07T04:26:41;3.40;99.90
9293;DHT22;69930;48.232;12.384;2024-01-07T04:29:08;3.40;99.90
9293;DHT22;69930;48.232;12.384;2024-01-07T04:31:36;3.40;99.90
9293;DHT22;69930;48.232;12.384;2024-01-07T04:34:03;3.40;99.90
9293;DHT22;69930;48.232;12.384;2024-01-07T04:36:30;3.40;99.90
9293;DHT22;69930;48.232;12.384;2024-01-07T04:38:57;3.40;99.90
9293;DHT22;69930;48.232;12.384;2024-01-07T04:41:24;3.40;99.90
9293;DHT22;69930;48.232;12.384;2024-01-07T04:43:53;3.50;99.90
9293;DHT22;69930;48.232;12.384;2024-01-07T04:46:20;3.50;99.90
9293;DHT22;69930;48.232;12.384;2024-01-07T04:48:47;3.50;99.90
9293;DHT22;69930;48.232;12.384;2024-01-07T04:51:14;3.40;99.90
9293;DHT22;69930;48.232;12.384;2024-01-07T04:53:41;3.40;99.90
9293;DHT22;69930;48.232;12.384;2024-01-07T04:56:08;3.40;99.90
9293;DHT22;69930;48.232;12.384;2024-01-07T04:58:36;3.40;99.90
9293;DHT22;69930;48.232;12.384;2024-01-07T05:01:04;3.40;99.90
9293;DHT22;69930;48.232;12.384;2024-01-07T05:03:31;3.40;99.90
9293;DHT22;69930;48.232;12.384;2024-01-07T05:05:59;3.50;99.90
9293;DHT22;69930;48.232;12.384;2024-01-07T05:08:28;3.50;99.90
9293;DHT22;69930;48.232;12.384;2024-01-07T05:10:55;3.50;99.90
9293;DHT22;69930;48.232;12.384;2024-01-07T05:13:22;3.50;99.90
9293;DHT22;69930;48.232;12.384;2024-01-07T05:15:49;3.50;99.90
9293;DHT22;69930;48.232;12.384;2024-01-07T05:18:21;3.50;99.90
9293;DHT22;69930;48.232;12.384;2024-01-07T05:20:48;3.50;99.90
9293;DHT22;69930;48.232;12.384;2024-01-07T05:23:15;3.50;99.90
9293;DHT22;69930;48.232;12.384;2024-01-07T05:25:44;3.50;99.90
9293;DHT22;69930;48.232;12.384;2024-01-07T05:28:11;3.50;99.90
9293;DHT22;69930;48.232;12.384;2024-01-07T05:30:38;3.50;99.90
9293;DHT22;69930;48.232;12.384;2024-01-07T05:33:06;3.50;99.90
9293;DHT22;69930;48.232;12.384;2024-01-07T05:35:35;3.50;99.90
9293;DHT22;69930;48.232;12.384;2024-01-07T05:38:02;3.50;99.90
9293;DHT22;69930;48.232;12.384;2024-01-07T05:40:29;3.50;99.90
9293;DHT22;69930;48.232;12.384;2024-01-07T05:42:56;3.50;99.90
9293;DHT22;69930;48.232;12.384;2024-01-07T05:45:23;3.40;99.90
9293;DHT22;69930;48.232;12.384;2024-01-07T05:47:50;3.50;99.90
9293;DHT22;69930;48.232;12.384;2024-01-07T05:50:17;3.50;99.90
9293;DHT22;69930;48.232;12.384;2024-01-07T05:52:47;3.50;99.90
9293;DHT22;69930;48.232;12.384;2024-01-07T05:55:14;3.50;99.90
9293;DHT22;69930;48.232;12.384;2024-01-07T05:57:43;3.50;99.90
9293;DHT22;69930;48.232;12.384;2024-01-07T06:00:11;3.50;99.90
9293;DHT22;69930;48.232;12.384;2024-01-07T06:02:38;3.50;99.90
9293;DHT22;69930;48.232;12.384;2024-01-07T06:05:06;3.40;99.90
9293;DHT22;69930;48.232;12.384;2024-01-07T06:07:33;3.40;99.90
9293;DHT22;69930;48.232;12.384;2024-01-07T06:10:02;3.40;99.90
9293;DHT22;69930;48.232;12.384;2024-01-07T06:12:29;3.40;99.90
9293;DHT22;69930;48.232;12.384;2024-01-07T06:14:56;3.40;99.90
9293;DHT22;69930;48.232;12.384;2024-01-07T06:17:23;3.40;99.90
9293;DHT22;69930;48.232;12.384;2024-01-07T06:19:50;3.40;99.90
9293;DHT22;69930;48.232;12.384;2024-01-07T06:22:17;3.40;99.90
9293;DHT22;69930;48.232;12.384;2024-01-07T06:24:45;3.40;99.90
9293;DHT22;69930;48.232;12.384;2024-01-07T06:27:13;3.40;99.90
9293;DHT22;69930;48.232;12.384;2024-01-07T06:29:41;3.30;99.90
9293;DHT22;69930;48.232;12.384;2024-01-07T06:32:08;3.30;99.90
9293;DHT22;69930;48.232;12.384;2024-01-07T06:34:35;3.30;99.90
9293;DHT22;69930;48.232;12.384;2024-01-07T06:37:03;3.40;99.90
9293;DHT22;69930;48.232;12.384;2024-01-07T06:39:31;3.40;99.90
9293;DHT22;69930;48.232;12.384;2024-01-07T06:42:00;3.40;99.90
9293;DHT22;69930;48.232;12.384;2024-01-07T06:44:28;3.40;99.90
9293;DHT22;69930;48.232;12.384;2024-01-07T06:46:55;3.50;99.90
9293;DHT22;69930;48.232;12.384;2024-01-07T06:49:22;3.50;99.90
9293;DHT22;69930;48.232;12.384;2024-01-07T06:51:49;3.40;99.90
9293;DHT22;69930;48.232;12.384;2024-01-07T06:54:16;3.50;99.90
9293;DHT22;69930;48.232;12.384;2024-01-07T06:56:44;3.50;99.90
9293;DHT22;69930;48.232;12.384;2024-01-07T06:59:11;3.50;99.90
9293;DHT22;69930;48.232;12.384;2024-01-07T07:01:39;3.40;99.90
9293;DHT22;69930;48.232;12.384;2024-01-07T07:04:06;3.40;99.90
9293;DHT22;69930;48.232;12.384;2024-01-07T07:06:34;3.40;99.90
9293;DHT22;69930;48.232;12.384;2024-01-07T07:09:01;3.40;99.90
9293;DHT22;69930;48.232;12.384;2024-01-07T07:11:28;3.30;99.90
9293;DHT22;69930;48.232;12.384;2024-01-07T07:13:55;3.30;99.90
9293;DHT22;69930;48.232;12.384;2024-01-07T07:16:23;3.30;99.90
9293;DHT22;69930;48.232;12.384;2024-01-07T07:18:52;3.30;99.90
9293;DHT22;69930;48.232;12.384;2024-01-07T07:21:19;3.30;99.90
9293;DHT22;69930;48.232;12.384;2024-01-07T07:23:46;3.20;99.90
9293;DHT22;69930;48.232;12.384;2024-01-07T07:26:14;3.20;99.90
9293;DHT22;69930;48.232;12.384;2024-01-07T07:28:41;3.20;99.90
9293;DHT22;69930;48.232;12.384;2024-01-07T07:31:08;3.20;99.90
9293;DHT22;69930;48.232;12.384;2024-01-07T07:33:35;3.20;99.90
9293;DHT22;69930;48.232;12.384;2024-01-07T07:36:04;3.10;99.90
9293;DHT22;69930;48.232;12.384;2024-01-07T07:38:31;3.10;99.90
9293;DHT22;69930;48.232;12.384;2024-01-07T07:40:59;3.00;99.90
9293;DHT22;69930;48.232;12.384;2024-01-07T07:43:26;3.00;99.90
9293;DHT22;69930;48.232;12.384;2024-01-07T07:45:54;3.00;99.90
9293;DHT22;69930;48.232;12.384;2024-01-07T07:48:21;3.00;99.90
9293;DHT22;69930;48.232;12.384;2024-01-07T07:50:48;3.00;99.90
9293;DHT22;69930;48.232;12.384;2024-01-07T07:53:17;3.00;99.90
9293;DHT22;69930;48.232;12.384;2024-01-07T07:55:44;3.00;99.90
9293;DHT22;69930;48.232;12.384;2024-01-07T07:58:11;3.00;99.90
9293;DHT22;69930;48.232;12.384;2024-01-07T08:00:38;3.10;99.90
9293;DHT22;69930;48.232;12.384;2024-01-07T08:03:06;3.10;99.90
9293;DHT22;69930;48.232;12.384;2024-01-07T08:05:33;3.10;99.90
9293;DHT22;69930;48.232;12.384;2024-01-07T08:08:00;3.20;99.90
9293;DHT22;69930;48.232;12.384;2024-01-07T08:10:28;3.10;99.90
9293;DHT22;69930;48.232;12.384;2024-01-07T08:12:57;3.20;99.90
9293;DHT22;69930;48.232;12.384;2024-01-07T08:15:25;3.10;99.90
9293;DHT22;69930;48.232;12.384;2024-01-07T08:17:52;3.10;99.90
9293;DHT22;69930;48.232;12.384;2024-01-07T08:20:19;3.10;99.90
9293;DHT22;69930;48.232;12.384;2024-01-07T08:22:46;3.10;99.90
9293;DHT22;69930;48.232;12.384;2024-01-07T08:25:14;3.10;99.90
9293;DHT22;69930;48.232;12.384;2024-01-07T08:27:43;3.20;99.90
9293;DHT22;69930;48.232;12.384;2024-01-07T08:30:11;3.10;99.90
9293;DHT22;69930;48.232;12.384;2024-01-07T08:32:39;3.10;99.90
9293;DHT22;69930;48.232;12.384;2024-01-07T08:35:07;3.20;99.90
9293;DHT22;69930;48.232;12.384;2024-01-07T08:37:34;3.20;99.90
9293;DHT22;69930;48.232;12.384;2024-01-07T08:40:03;3.20;99.90
9293;DHT22;69930;48.232;12.384;2024-01-07T08:42:31;3.20;99.90
9293;DHT22;69930;48.232;12.384;2024-01-07T08:45:00;3.20;99.90
9293;DHT22;69930;48.232;12.384;2024-01-07T08:47:27;3.20;99.90
9293;DHT22;69930;48.232;12.384;2024-01-07T08:49:54;3.20;99.90
9293;DHT22;69930;48.232;12.384;2024-01-07T08:52:22;3.20;99.90
9293;DHT22;69930;48.232;12.384;2024-01-07T08:54:50;3.10;99.90
9293;DHT22;69930;48.232;12.384;2024-01-07T08:57:18;3.10;99.90
9293;DHT22;69930;48.232;12.384;2024-01-07T08:59:46;3.10;99.90
9293;DHT22;69930;48.232;12.384;2024-01-07T09:02:14;3.10;99.90
9293;DHT22;69930;48.232;12.384;2024-01-07T09:04:42;3.10;99.90
9293;DHT22;69930;48.232;12.384;2024-01-07T09:07:10;3.10;99.90
9293;DHT22;69930;48.232;12.384;2024-01-07T09:09:37;3.10;99.90
9293;DHT22;69930;48.232;12.384;2024-01-07T09:12:05;3.10;99.90
9293;DHT22;69930;48.232;12.384;2024-01-07T09:14:32;3.10;99.90
9293;DHT22;69930;48.232;12.384;2024-01-07T09:17:00;3.00;99.90
9293;DHT22;69930;48.232;12.384;2024-01-07T09:19:30;3.00;99.90
9293;DHT22;69930;48.232;12.384;2024-01-07T09:21:57;3.00;99.90
9293;DHT22;69930;48.232;12.384;2024-01-07T09:24:24;3.00;99.90
9293;DHT22;69930;48.232;12.384;2024-01-07T09:26:51;3.00;99.90
9293;DHT22;69930;48.232;12.384;2024-01-07T09:29:18;3.00;99.90
9293;DHT22;69930;48.232;12.384;2024-01-07T09:31:46;3.10;99.90
9293;DHT22;69930;48.232;12.384;2024-01-07T09:34:13;3.10;99.90
9293;DHT22;69930;48.232;12.384;2024-01-07T09:37:09;3.10;99.90
9293;DHT22;69930;48.232;12.384;2024-01-07T09:39:38;3.10;99.90
9293;DHT22;69930;48.232;12.384;2024-01-07T09:42:12;3.10;99.90
9293;DHT22;69930;48.232;12.384;2024-01-07T09:44:54;3.20;99.90
9293;DHT22;69930;48.232;12.384;2024-01-07T09:47:21;3.10;99.90
9293;DHT22;69930;48.232;12.384;2024-01-07T09:49:49;3.20;99.90
9293;DHT22;69930;48.232;12.384;2024-01-07T09:52:20;3.10;99.90
9293;DHT22;69930;48.232;12.384;2024-01-07T09:54:51;3.10;99.90
9293;DHT22;69930;48.232;12.384;2024-01-07T09:57:19;3.10;99.90
9293;DHT22;69930;48.232;12.384;2024-01-07T09:59:46;3.10;99.90
9293;DHT22;69930;48.232;12.384;2024-01-07T10:02:15;3.10;99.90
9293;DHT22;69930;48.232;12.384;2024-01-07T10:04:43;3.10;99.90
9293;DHT22;69930;48.232;12.384;2024-01-07T10:07:13;3.20;99.90
9293;DHT22;69930;48.232;12.384;2024-01-07T10:09:41;3.20;99.90
9293;DHT22;69930;48.232;12.384;2024-01-07T10:12:09;3.20;99.90
9293;DHT22;69930;48.232;12.384;2024-01-07T10:14:38;3.20;99.90
9293;DHT22;69930;48.232;12.384;2024-01-07T10:17:15;3.20;99.90
9293;DHT22;69930;48.232;12.384;2024-01-07T10:19:44;3.20;99.90
9293;DHT22;69930;48.232;12.384;2024-01-07T10:22:13;3.20;99.90
9293;DHT22;69930;48.232;12.384;2024-01-07T10:24:43;3.30;99.90
9293;DHT22;69930;48.232;12.384;2024-01-07T10:27:10;3.30;99.90
9293;DHT22;69930;48.232;12.384;2024-01-07T10:29:38;3.30;99.90
9293;DHT22;69930;48.232;12.384;2024-01-07T10:32:05;3.40;99.90
9293;DHT22;69930;48.232;12.384;2024-01-07T10:34:33;3.40;99.90
9293;DHT22;69930;48.232;12.384;2024-01-07T10:37:01;3.30;99.90
9293;DHT22;69930;48.232;12.384;2024-01-07T10:39:29;3.30;99.90
9293;DHT22;69930;48.232;12.384;2024-01-07T10:41:58;3.30;99.90
9293;DHT22;69930;48.232;12.384;2024-01-07T10:44:27;3.30;99.90
9293;DHT22;69930;48.232;12.384;2024-01-07T10:46:54;3.30;99.90
9293;DHT22;69930;48.232;12.384;2024-01-07T10:49:23;3.30;99.90
9293;DHT22;69930;48.232;12.384;2024-01-07T10:52:00;3.40;99.90
9293;DHT22;69930;48.232;12.384;2024-01-07T10:54:29;3.30;99.90
9293;DHT22;69930;48.232;12.384;2024-01-07T10:57:00;3.30;99.90
9293;DHT22;69930;48.232;12.384;2024-01-07T10:59:32;3.20;99.90
9293;DHT22;69930;48.232;12.384;2024-01-07T11:02:00;3.20;99.90
9293;DHT22;69930;48.232;12.384;2024-01-07T11:04:41;3.20;99.90
9293;DHT22;69930;48.232;12.384;2024-01-07T11:07:17;3.20;99.90
9293;DHT22;69930;48.232;12.384;2024-01-07T11:09:54;3.20;99.90
9293;DHT22;69930;48.232;12.384;2024-01-07T11:12:24;3.20;99.90
9293;DHT22;69930;48.232;12.384;2024-01-07T11:14:51;3.20;99.90
9293;DHT22;69930;48.232;12.384;2024-01-07T11:17:41;3.20;99.90
9293;DHT22;69930;48.232;12.384;2024-01-07T11:20:17;3.20;99.90
9293;DHT22;69930;48.232;12.384;2024-01-07T11:22:45;3.20;99.90
9293;DHT22;69930;48.232;12.384;2024-01-07T11:25:30;3.20;99.90
9293;DHT22;69930;48.232;12.384;2024-01-07T11:28:01;3.20;99.90
9293;DHT22;69930;48.232;12.384;2024-01-07T11:30:29;3.10;99.90
9293;DHT22;69930;48.232;12.384;2024-01-07T11:32:59;3.00;99.90
9293;DHT22;69930;48.232;12.384;2024-01-07T11:38:30;3.00;99.90
9293;DHT22;69930;48.232;12.384;2024-01-07T11:40:57;3.00;99.90
9293;DHT22;69930;48.232;12.384;2024-01-07T11:43:27;3.00;99.90
9293;DHT22;69930;48.232;12.384;2024-01-07T11:45:55;3.00;99.90
9293;DHT22;69930;48.232;12.384;2024-01-07T11:48:22;2.90;99.90
9293;DHT22;69930;48.232;12.384;2024-01-07T11:50:49;2.80;99.90
9293;DHT22;69930;48.232;12.384;2024-01-07T11:53:16;2.80;99.90
9293;DHT22;69930;48.232;12.384;2024-01-07T11:55:44;2.80;99.90
9293;DHT22;69930;48.232;12.384;2024-01-07T11:58:27;2.80;99.90
9293;DHT22;69930;48.232;12.384;2024-01-07T12:00:54;2.80;99.90
9293;DHT22;69930;48.232;12.384;2024-01-07T12:03:22;2.80;99.90
9293;DHT22;69930;48.232;12.384;2024-01-07T12:05:49;2.80;99.90
9293;DHT22;69930;48.232;12.384;2024-01-07T12:08:17;2.90;99.90
9293;DHT22;69930;48.232;12.384;2024-01-07T12:10:46;2.90;99.90
9293;DHT22;69930;48.232;12.384;2024-01-07T12:13:14;3.00;99.90
9293;DHT22;69930;48.232;12.384;2024-01-07T12:15:43;3.00;99.90
9293;DHT22;69930;48.232;12.384;2024-01-07T12:18:11;3.10;99.90
9293;DHT22;69930;48.232;12.384;2024-01-07T12:20:38;3.00;99.90
9293;DHT22;69930;48.232;12.384;2024-01-07T12:23:05;3.10;99.90
9293;DHT22;69930;48.232;12.384;2024-01-07T12:25:33;3.00;99.90
9293;DHT22;69930;48.232;12.384;2024-01-07T12:28:01;3.00;99.90
9293;DHT22;69930;48.232;12.384;2024-01-07T12:30:28;3.00;99.90
9293;DHT22;69930;48.232;12.384;2024-01-07T12:32:58;3.10;99.90
9293;DHT22;69930;48.232;12.384;2024-01-07T12:35:25;3.00;99.90
9293;DHT22;69930;48.232;12.384;2024-01-07T12:37:53;3.00;99.90
9293;DHT22;69930;48.232;12.384;2024-01-07T12:40:21;3.10;99.90
9293;DHT22;69930;48.232;12.384;2024-01-07T12:42:50;3.00;99.90
9293;DHT22;69930;48.232;12.384;2024-01-07T12:45:17;3.00;99.90
9293;DHT22;69930;48.232;12.384;2024-01-07T12:47:44;3.00;99.90
9293;DHT22;69930;48.232;12.384;2024-01-07T12:50:14;3.00;99.90
9293;DHT22;69930;48.232;12.384;2024-01-07T12:52:41;3.00;99.90
9293;DHT22;69930;48.232;12.384;2024-01-07T12:55:08;2.90;99.90
9293;DHT22;69930;48.232;12.384;2024-01-07T12:57:35;3.00;99.90
9293;DHT22;69930;48.232;12.384;2024-01-07T13:00:04;3.00;99.90
9293;DHT22;69930;48.232;12.384;2024-01-07T13:02:33;3.00;99.90
9293;DHT22;69930;48.232;12.384;2024-01-07T13:05:01;3.00;99.90
9293;DHT22;69930;48.232;12.384;2024-01-07T13:07:30;3.00;99.90
9293;DHT22;69930;48.232;12.384;2024-01-07T13:09:57;3.00;99.90
9293;DHT22;69930;48.232;12.384;2024-01-07T13:12:25;3.00;99.90
9293;DHT22;69930;48.232;12.384;2024-01-07T13:14:52;3.00;99.90
9293;DHT22;69930;48.232;12.384;2024-01-07T13:17:19;3.00;99.90
9293;DHT22;69930;48.232;12.384;2024-01-07T13:19:46;3.00;99.90
9293;DHT22;69930;48.232;12.384;2024-01-07T13:22:13;2.90;99.90
9293;DHT22;69930;48.232;12.384;2024-01-07T13:24:42;3.00;99.90
9293;DHT22;69930;48.232;12.384;2024-01-07T13:27:09;2.90;99.90
9293;DHT22;69930;48.232;12.384;2024-01-07T13:29:36;3.00;99.90
9293;DHT22;69930;48.232;12.384;2024-01-07T13:32:03;3.00;99.90
9293;DHT22;69930;48.232;12.384;2024-01-07T13:34:30;3.00;99.90
9293;DHT22;69930;48.232;12.384;2024-01-07T13:36:58;3.00;99.90
9293;DHT22;69930;48.232;12.384;2024-01-07T13:39:25;3.00;99.90
9293;DHT22;69930;48.232;12.384;2024-01-07T13:41:54;3.10;99.90
9293;DHT22;69930;48.232;12.384;2024-01-07T13:44:21;3.00;99.90
9293;DHT22;69930;48.232;12.384;2024-01-07T13:46:48;3.00;99.90
9293;DHT22;69930;48.232;12.384;2024-01-07T13:49:17;3.00;99.90
9293;DHT22;69930;48.232;12.384;2024-01-07T13:51:44;3.00;99.90
9293;DHT22;69930;48.232;12.384;2024-01-07T13:54:12;3.00;99.90
9293;DHT22;69930;48.232;12.384;2024-01-07T13:56:40;3.00;99.90
9293;DHT22;69930;48.232;12.384;2024-01-07T13:59:09;3.00;99.90
9293;DHT22;69930;48.232;12.384;2024-01-07T14:01:37;3.00;99.90
9293;DHT22;69930;48.232;12.384;2024-01-07T14:04:05;3.00;99.90
9293;DHT22;69930;48.232;12.384;2024-01-07T14:06:32;3.00;99.90
9293;DHT22;69930;48.232;12.384;2024-01-07T14:08:59;3.00;99.90
9293;DHT22;69930;48.232;12.384;2024-01-07T14:11:26;3.00;99.90
9293;DHT22;69930;48.232;12.384;2024-01-07T14:13:53;3.00;99.90
9293;DHT22;69930;48.232;12.384;2024-01-07T14:16:22;3.00;99.90
9293;DHT22;69930;48.232;12.384;2024-01-07T14:18:49;3.00;99.90
9293;DHT22;69930;48.232;12.384;2024-01-07T14:21:16;3.00;99.90
9293;DHT22;69930;48.232;12.384;2024-01-07T14:23:43;3.10;99.90
9293;DHT22;69930;48.232;12.384;2024-01-07T14:26:11;3.10;99.90
9293;DHT22;69930;48.232;12.384;2024-01-07T14:28:38;3.10;99.90
9293;DHT22;69930;48.232;12.384;2024-01-07T14:31:05;3.10;99.90
9293;DHT22;69930;48.232;12.384;2024-01-07T14:33:34;3.00;99.90
9293;DHT22;69930;48.232;12.384;2024-01-07T14:36:02;3.10;99.90
9293;DHT22;69930;48.232;12.384;2024-01-07T14:38:30;3.00;99.90
9293;DHT22;69930;48.232;12.384;2024-01-07T14:40:57;3.00;99.90
9293;DHT22;69930;48.232;12.384;2024-01-07T14:43:24;3.00;99.90
9293;DHT22;69930;48.232;12.384;2024-01-07T14:45:51;3.00;99.90
9293;DHT22;69930;48.232;12.384;2024-01-07T14:48:18;3.00;99.90
9293;DHT22;69930;48.232;12.384;2024-01-07T14:50:47;3.00;99.90
9293;DHT22;69930;48.232;12.384;2024-01-07T14:53:14;3.00;99.90
9293;DHT22;69930;48.232;12.384;2024-01-07T14:55:41;3.00;99.90
9293;DHT22;69930;48.232;12.384;2024-01-07T14:58:08;3.00;99.90
9293;DHT22;69930;48.232;12.384;2024-01-07T15:00:35;3.00;99.90
9293;DHT22;69930;48.232;12.384;2024-01-07T15:03:03;3.10;99.90
9293;DHT22;69930;48.232;12.384;2024-01-07T15:05:30;3.10;99.90
9293;DHT22;69930;48.232;12.384;2024-01-07T15:07:58;3.10;99.90
9293;DHT22;69930;48.232;12.384;2024-01-07T15:10:25;3.10;99.90
9293;DHT22;69930;48.232;12.384;2024-01-07T15:12:53;3.10;99.90
9293;DHT22;69930;48.232;12.384;2024-01-07T15:15:20;3.10;99.90
9293;DHT22;69930;48.232;12.384;2024-01-07T15:17:48;3.10;99.90
9293;DHT22;69930;48.232;12.384;2024-01-07T15:20:16;3.10;99.90
9293;DHT22;69930;48.232;12.384;2024-01-07T15:22:43;3.10;99.90
9293;DHT22;69930;48.232;12.384;2024-01-07T15:25:12;3.10;99.90
9293;DHT22;69930;48.232;12.384;2024-01-07T15:27:39;3.10;99.90
9293;DHT22;69930;48.232;12.384;2024-01-07T15:30:07;3.10;99.90
9293;DHT22;69930;48.232;12.384;2024-01-07T15:32:34;3.10;99.90
9293;DHT22;69930;48.232;12.384;2024-01-07T15:35:01;3.10;99.90
9293;DHT22;69930;48.232;12.384;2024-01-07T15:37:30;3.20;99.90
9293;DHT22;69930;48.232;12.384;2024-01-07T15:39:57;3.20;99.90
9293;DHT22;69930;48.232;12.384;2024-01-07T15:42:26;3.10;99.90
9293;DHT22;69930;48.232;12.384;2024-01-07T15:44:53;3.10;99.90
9293;DHT22;69930;48.232;12.384;2024-01-07T15:47:20;3.10;99.90
9293;DHT22;69930;48.232;12.384;2024-01-07T15:49:48;3.00;99.90
9293;DHT22;69930;48.232;12.384;2024-01-07T15:52:15;3.00;99.90